Decoded Metar for LDZD (ZADAR in CROATIA) (IATA:ZAD) | Meteo·Mobile Aviation Weather
aviador You're here:

LDZD Decoded Metar

ZADAR in CROATIA
Report Time2018-10-17 20:30:00
UTC Time2018-10-17 20:52:12
Flight Rules vfr VFR
WindCalm
Visibility9999 m
Phenomena:N/A
Clouds:N/A
Expected CloudBase > 800 ft AGL from Temp-Dew spread
CeilingNone
Temp16°C (ISA +2)
Dew Point14°C (88% RH)
QNH1017 hPa
Density Alt538 ft
Elevation276 ft
Report Wrong Elevation
Raw Report
LDZD 172030Z 00000KT CAVOK 16/14 Q1017 NOSIG=

Extra information for LDZD:More info

Metar Taf Metar & Taf Last 4 Metars F.Rules Stats Wind Profile Meteogram Temp Stats Airport Information Weather charts Add Link Nearby VenuesMetar ALERT Operation Metar Decoded Social comments